Time,TemperatureF,DewpointF,PressureIn,WindDirection,WindDirectionDegrees,WindSpeedMPH,WindSpeedGustMPH,Humidity,HourlyPrecipIn,Conditions,Clouds,dailyrainin,SoftwareType,DateUTC
2013-03-02 00:00:00,30.0,24.0,30.01,NNW,338,1.1,2.3,78,0.00,CLR,SKC,0.02,WeatherDisplay:10.37,2013-03-02 05:00:00,
2013-03-02 00:01:00,30.0,24.0,30.01,NNW,338,1.1,1.1,78,0.00,CLR,SKC,0.02,WeatherDisplay:10.37,2013-03-02 05:01:00,
2013-03-02 00:06:00,30.0,24.0,30.01,NE,45,0.8,4.6,78,0.00,RA,SKC,0.00,WeatherDisplay:10.37,2013-03-02 05:06:00,
2013-03-02 00:11:00,30.0,24.0,30.02,NNE,22,0.6,3.5,78,0.00,RA,SKC,0.00,WeatherDisplay:10.37,2013-03-02 05:11:00,
2013-03-02 00:16:00,30.0,24.0,30.02,NNE,22,2.0,3.5,78,0.00,CLR,SKC,0.00,WeatherDisplay:10.37,2013-03-02 05:16:00,
2013-03-02 00:21:00,30.0,24.0,30.02,NNE,22,1.9,4.6,78,0.00,CLR,SKC,0.00,WeatherDisplay:10.37,2013-03-02 05:21:00,
2013-03-02 00:26:00,30.0,24.0,30.02,NNE,22,0.8,4.6,78,0.00,CLR,SKC,0.00,WeatherDisplay:10.37,2013-03-02 05:26:00,
2013-03-02 00:31:00,30.0,24.0,30.01,NNW,338,2.4,4.6,78,0.00,CLR,SKC,0.00,WeatherDisplay:10.37,2013-03-02 05:31:00,
2013-03-02 00:36:00,30.0,24.0,30.02,NNE,22,0.8,4.6,78,0.00,CLR,SKC,0.00,WeatherDisplay:10.37,2013-03-02 05:36:00,
2013-03-02 00:41:00,30.0,24.0,30.02,North,0,1.8,3.1,78,0.00,CLR,SKC,0.00,WeatherDisplay:10.37,2013-03-02 05:41:00,
2013-03-02 00:46:00,30.0,24.0,30.01,North,0,1.5,4.7,78,0.00,CLR,SKC,0.00,WeatherDisplay:10.37,2013-03-02 05:46:00,
2013-03-02 00:51:00,30.2,24.2,30.01,NNE,22,1.3,2.3,78,0.00,CLR,SKC,0.00,WeatherDisplay:10.37,2013-03-02 05:51:00,
2013-03-02 00:56:00,30.2,24.2,30.01,North,0,2.3,3.6,78,0.00,CLR,SKC,0.00,WeatherDisplay:10.37,2013-03-02 05:56:00,
2013-03-02 01:01:00,30.4,24.3,30.00,ENE,68,2.2,5.1,78,0.00,CLR,SKC,0.00,WeatherDisplay:10.37,2013-03-02 06:01:00,
2013-03-02 01:06:00,30.2,24.2,30.00,NE,45,1.1,5.8,78,0.00,CLR,SKC,0.00,WeatherDisplay:10.37,2013-03-02 06:06:00,
2013-03-02 01:11:00,30.2,24.2,30.01,NNE,22,1.1,3.5,78,0.00,CLR,SKC,0.00,WeatherDisplay:10.37,2013-03-02 06:11:00,
2013-03-02 01:16:00,30.2,24.2,30.00,NNE,22,2.7,3.5,78,0.00,CLR,SKC,0.00,WeatherDisplay:10.37,2013-03-02 06:16:00,
2013-03-02 01:21:00,30.2,24.2,30.01,NE,45,0.1,1.1,78,0.00,CLR,SKC,0.00,WeatherDisplay:10.37,2013-03-02 06:21:00,
2013-03-02 01:26:00,30.0,24.0,30.01,NE,45,0.0,0.0,78,0.00,CLR,SKC,0.00,WeatherDisplay:10.37,2013-03-02 06:26:00,
2013-03-02 01:31:00,30.0,24.0,30.01,North,0,2.2,4.6,78,0.00,CLR,SKC,0.00,WeatherDisplay:10.37,2013-03-02 06:31:00,
2013-03-02 01:36:00,30.0,24.0,30.01,NE,45,0.4,0.0,78,0.00,CLR,SKC,0.00,WeatherDisplay:10.37,2013-03-02 06:36:00,
2013-03-02 01:41:00,30.0,24.0,30.01,ENE,68,2.5,3.5,78,0.00,CLR,SKC,0.00,WeatherDisplay:10.37,2013-03-02 06:41:00,
2013-03-02 01:46:00,29.8,23.8,30.00,ENE,68,0.0,0.0,78,0.00,CLR,SKC,0.00,WeatherDisplay:10.37,2013-03-02 06:46:00,
2013-03-02 01:51:00,29.7,23.6,30.01,ENE,68,1.2,3.5,78,0.00,CLR,SKC,0.00,WeatherDisplay:10.37,2013-03-02 06:51:00,
2013-03-02 01:56:00,29.5,23.5,30.01,ENE,68,0.8,3.5,78,0.00,CLR,SKC,0.00,WeatherDisplay:10.37,2013-03-02 06:56:00,
2013-03-02 02:01:00,29.5,23.2,30.01,ENE,68,0.0,1.1,77,0.00,CLR,SKC,0.00,WeatherDisplay:10.37,2013-03-02 07:01:00,
2013-03-02 02:06:00,29.3,23.0,30.01,ENE,68,1.3,3.5,77,0.00,CLR,SKC,0.00,WeatherDisplay:10.37,2013-03-02 07:06:00,
2013-03-02 02:11:00,29.3,23.0,30.01,NNE,22,0.2,0.0,77,0.00,CLR,SKC,0.00,WeatherDisplay:10.37,2013-03-02 07:11:00,
2013-03-02 02:16:00,29.3,23.0,30.01,ENE,68,0.9,2.3,77,0.00,CLR,SKC,0.00,WeatherDisplay:10.37,2013-03-02 07:16:00,
2013-03-02 02:21:00,29.3,23.0,30.01,NNE,22,0.1,1.1,77,0.00,CLR,SKC,0.00,WeatherDisplay:10.37,2013-03-02 07:21:00,
2013-03-02 02:26:00,29.1,22.8,30.01,NE,45,0.1,4.6,77,0.00,CLR,SKC,0.00,WeatherDisplay:10.37,2013-03-02 07:26:00,
2013-03-02 02:30:00,29.1,22.8,30.01,NE,45,2.6,4.6,77,0.00,CLR,SKC,0.00,WeatherDisplay:10.37,2013-03-02 07:30:00,
2013-03-02 02:36:00,29.1,22.8,30.01,NE,45,1.2,4.6,77,0.00,CLR,SKC,0.00,WeatherDisplay:10.37,2013-03-02 07:36:00,
2013-03-02 02:40:00,29.1,22.8,30.01,NNE,22,1.2,4.5,77,0.00,CLR,SKC,0.00,WeatherDisplay:10.37,2013-03-02 07:40:00,
2013-03-02 02:45:00,28.9,22.6,30.01,ESE,112,0.4,4.0,77,0.00,CLR,SKC,0.00,WeatherDisplay:10.37,2013-03-02 07:45:00,
2013-03-02 02:50:00,28.9,22.6,30.01,North,0,1.7,6.9,77,0.00,CLR,SKC,0.00,WeatherDisplay:10.37,2013-03-02 07:50:00,
2013-03-02 02:56:00,28.9,22.6,30.01,NNE,22,2.3,2.3,77,0.00,CLR,SKC,0.00,WeatherDisplay:10.37,2013-03-02 07:56:00,
2013-03-02 03:01:00,28.9,22.6,30.01,NNE,22,0.6,3.5,77,0.00,CLR,SKC,0.00,WeatherDisplay:10.37,2013-03-02 08:01:00,
2013-03-02 03:06:00,28.9,22.3,30.01,NE,45,2.4,3.5,76,0.00,CLR,SKC,0.00,WeatherDisplay:10.37,2013-03-02 08:06:00,
2013-03-02 03:11:00,28.8,22.1,30.01,NNE,22,2.6,3.5,76,0.00,CLR,SKC,0.00,WeatherDisplay:10.37,2013-03-02 08:11:00,
2013-03-02 03:16:00,28.6,21.7,30.01,NNE,22,1.6,2.3,75,0.00,CLR,SKC,0.00,WeatherDisplay:10.37,2013-03-02 08:16:00,
2013-03-02 03:21:00,28.4,21.5,30.01,ENE,68,4.0,4.6,75,0.00,CLR,SKC,0.00,WeatherDisplay:10.37,2013-03-02 08:21:00,
2013-03-02 03:26:00,28.2,21.3,30.00,NNE,22,3.9,4.6,75,0.00,CLR,SKC,0.00,WeatherDisplay:10.37,2013-03-02 08:26:00,
2013-03-02 03:31:00,28.2,21.3,30.01,NE,45,0.7,4.6,75,0.00,CLR,SKC,0.00,WeatherDisplay:10.37,2013-03-02 08:31:00,
2013-03-02 03:36:00,28.2,21.3,30.00,NE,45,0.4,3.5,75,0.00,CLR,SKC,0.00,WeatherDisplay:10.37,2013-03-02 08:36:00,
2013-03-02 03:41:00,28.2,21.3,30.00,ENE,68,1.4,0.0,75,0.00,CLR,SKC,0.00,WeatherDisplay:10.37,2013-03-02 08:41:00,
2013-03-02 03:46:00,28.0,21.1,30.00,NE,45,1.8,2.3,75,0.00,CLR,SKC,0.00,WeatherDisplay:10.37,2013-03-02 08:46:00,
2013-03-02 03:51:00,28.0,21.1,30.00,ENE,68,2.1,8.1,75,0.00,CLR,SKC,0.00,WeatherDisplay:10.37,2013-03-02 08:51:00,
2013-03-02 03:56:00,28.0,20.8,30.00,ENE,68,1.5,2.3,74,0.00,CLR,SKC,0.00,WeatherDisplay:10.37,2013-03-02 08:56:00,
2013-03-02 04:01:00,27.7,20.5,30.00,East,90,0.0,0.0,74,0.00,CLR,SKC,0.00,WeatherDisplay:10.37,2013-03-02 09:01:00,
2013-03-02 04:06:00,27.7,20.5,30.00,ENE,68,2.8,4.6,74,0.00,CLR,SKC,0.00,WeatherDisplay:10.37,2013-03-02 09:06:00,
2013-03-02 04:11:00,27.7,20.5,30.00,NE,45,3.6,4.7,74,0.00,CLR,SKC,0.00,WeatherDisplay:10.37,2013-03-02 09:11:00,
2013-03-02 04:16:00,27.5,20.3,30.00,NNE,22,1.0,5.8,74,0.00,CLR,SKC,0.00,WeatherDisplay:10.37,2013-03-02 09:16:00,
2013-03-02 04:21:00,27.5,20.3,30.00,NE,45,0.9,4.0,74,0.00,CLR,SKC,0.00,WeatherDisplay:10.37,2013-03-02 09:21:00,
2013-03-02 04:26:00,27.5,20.3,30.00,East,90,0.8,3.5,74,0.00,CLR,SKC,0.00,WeatherDisplay:10.37,2013-03-02 09:26:00,
2013-03-02 04:31:00,27.5,20.3,30.00,NNE,22,2.2,5.8,74,0.00,CLR,SKC,0.00,WeatherDisplay:10.37,2013-03-02 09:31:00,
2013-03-02 04:36:00,27.5,20.3,30.00,NE,45,0.2,1.1,74,0.00,CLR,SKC,0.00,WeatherDisplay:10.37,2013-03-02 09:36:00,
2013-03-02 04:41:00,27.7,20.5,30.00,East,90,0.6,2.3,74,0.00,CLR,SKC,0.00,WeatherDisplay:10.37,2013-03-02 09:41:00,
2013-03-02 04:46:00,27.7,20.5,30.00,East,90,2.2,2.3,74,0.00,CLR,SKC,0.00,WeatherDisplay:10.37,2013-03-02 09:46:00,
2013-03-02 04:51:00,27.7,20.5,30.00,NE,45,0.0,3.5,74,0.00,CLR,SKC,0.00,WeatherDisplay:10.37,2013-03-02 09:51:00,
2013-03-02 04:56:00,27.7,20.5,30.00,East,90,1.1,3.5,74,0.00,CLR,SKC,0.00,WeatherDisplay:10.37,2013-03-02 09:56:00,
2013-03-02 05:01:00,27.7,20.5,30.00,ENE,68,0.4,3.5,74,0.00,CLR,SKC,0.00,WeatherDisplay:10.37,2013-03-02 10:01:00,
2013-03-02 05:06:00,27.7,20.5,30.00,NNE,22,0.5,3.5,74,0.00,CLR,SKC,0.00,WeatherDisplay:10.37,2013-03-02 10:06:00,
2013-03-02 05:11:00,27.7,20.5,30.00,NNE,22,0.0,0.0,74,0.00,CLR,SKC,0.00,WeatherDisplay:10.37,2013-03-02 10:11:00,
2013-03-02 05:16:00,27.7,20.5,30.00,NE,45,0.0,0.0,74,0.00,CLR,SKC,0.00,WeatherDisplay:10.37,2013-03-02 10:16:00,
2013-03-02 05:21:00,27.7,20.8,30.00,NE,45,1.3,1.3,75,0.00,CLR,SKC,0.00,WeatherDisplay:10.37,2013-03-02 10:21:00,
2013-03-02 05:26:00,28.0,21.1,30.00,NE,45,0.7,2.3,75,0.00,CLR,SKC,0.00,WeatherDisplay:10.37,2013-03-02 10:26:00,
2013-03-02 05:31:00,28.0,20.8,30.01,NNE,22,0.5,1.8,74,0.00,CLR,SKC,0.00,WeatherDisplay:10.37,2013-03-02 10:31:00,
2013-03-02 05:36:00,28.0,20.8,30.00,NNE,22,0.3,1.1,74,0.00,CLR,SKC,0.00,WeatherDisplay:10.37,2013-03-02 10:36:00,
2013-03-02 05:41:00,28.0,20.8,30.00,NNE,22,0.6,1.1,74,0.00,CLR,SKC,0.00,WeatherDisplay:10.37,2013-03-02 10:41:00,
2013-03-02 05:46:00,28.0,20.8,30.00,NNE,22,0.0,0.0,74,0.00,CLR,SKC,0.00,WeatherDisplay:10.37,2013-03-02 10:46:00,
2013-03-02 05:51:00,28.0,20.8,30.00,NNE,22,0.0,0.0,74,0.00,CLR,SKC,0.00,WeatherDisplay:10.37,2013-03-02 10:51:00,
2013-03-02 05:56:00,28.0,20.5,30.00,ENE,68,0.0,0.0,73,0.00,CLR,SKC,0.00,WeatherDisplay:10.37,2013-03-02 10:56:00,
2013-03-02 06:01:00,28.0,20.5,30.00,ENE,68,0.0,1.1,73,0.00,CLR,SKC,0.00,WeatherDisplay:10.37,2013-03-02 11:01:00,
2013-03-02 06:06:00,28.0,20.5,30.00,NE,45,0.0,0.0,73,0.00,CLR,SKC,0.00,WeatherDisplay:10.37,2013-03-02 11:06:00,
2013-03-02 06:11:00,28.0,20.5,30.01,NNE,22,1.1,2.3,73,0.00,CLR,SKC,0.00,WeatherDisplay:10.37,2013-03-02 11:11:00,
2013-03-02 06:16:00,28.2,20.7,30.00,NNW,338,1.3,3.5,73,0.00,CLR,SKC,0.00,WeatherDisplay:10.37,2013-03-02 11:16:00,
2013-03-02 06:21:00,28.2,20.7,30.01,NE,45,0.0,0.0,73,0.00,CLR,SKC,0.00,WeatherDisplay:10.37,2013-03-02 11:21:00,
2013-03-02 06:26:00,28.2,20.7,30.00,North,0,0.0,0.0,73,0.00,CLR,SKC,0.00,WeatherDisplay:10.37,2013-03-02 11:26:00,
2013-03-02 06:31:00,28.2,20.7,30.01,North,0,0.0,0.0,73,0.00,CLR,SKC,0.00,WeatherDisplay:10.37,2013-03-02 11:31:00,
2013-03-02 06:36:00,28.2,20.7,30.00,North,0,0.0,0.0,73,0.00,CLR,SKC,0.00,WeatherDisplay:10.37,2013-03-02 11:36:00,
2013-03-02 06:41:00,28.2,20.7,30.00,North,0,0.1,3.5,73,0.00,CLR,SKC,0.00,WeatherDisplay:10.37,2013-03-02 11:41:00,
2013-03-02 06:46:00,28.2,20.7,30.00,NW,315,1.4,3.5,73,0.00,CLR,SKC,0.00,WeatherDisplay:10.37,2013-03-02 11:46:00,
2013-03-02 06:51:00,28.2,20.7,30.00,North,0,0.6,1.1,73,0.00,CLR,SKC,0.00,WeatherDisplay:10.37,2013-03-02 11:51:00,
2013-03-02 06:56:00,28.2,20.7,30.01,NNW,338,1.2,3.5,73,0.00,CLR,SKC,0.00,WeatherDisplay:10.37,2013-03-02 11:56:00,
2013-03-02 07:01:00,28.2,20.7,30.00,NNW,338,0.1,0.0,73,0.00,CLR,SKC,0.00,WeatherDisplay:10.37,2013-03-02 12:01:00,
2013-03-02 07:06:00,28.2,20.7,30.01,NNW,338,0.8,2.2,73,0.00,CLR,SKC,0.00,WeatherDisplay:10.37,2013-03-02 12:06:00,
2013-03-02 07:11:00,28.6,21.0,30.01,NNW,338,1.6,2.5,73,0.00,CLR,SKC,0.00,WeatherDisplay:10.37,2013-03-02 12:11:00,
2013-03-02 07:16:00,28.6,21.0,30.01,NNW,338,1.5,3.5,73,0.00,CLR,SKC,0.00,WeatherDisplay:10.37,2013-03-02 12:16:00,
2013-03-02 07:21:00,28.2,20.7,30.01,North,0,1.4,3.5,73,0.00,CLR,SKC,0.00,WeatherDisplay:10.37,2013-03-02 12:21:00,
2013-03-02 07:26:00,28.4,20.8,30.02,NW,315,3.2,5.8,73,0.00,CLR,SKC,0.00,WeatherDisplay:10.37,2013-03-02 12:26:00,
2013-03-02 07:31:00,28.6,21.0,30.02,NNW,338,0.3,1.1,73,0.00,CLR,SKC,0.00,WeatherDisplay:10.37,2013-03-02 12:31:00,
2013-03-02 07:36:00,28.6,21.0,30.02,NW,315,0.7,2.3,73,0.00,CLR,SKC,0.00,WeatherDisplay:10.37,2013-03-02 12:36:00,
2013-03-02 07:41:00,28.6,21.0,30.03,NNW,338,3.3,4.6,73,0.00,CLR,SKC,0.00,WeatherDisplay:10.37,2013-03-02 12:41:00,
2013-03-02 07:46:00,28.6,21.0,30.03,West,270,1.9,4.6,73,0.00,CLR,SKC,0.00,WeatherDisplay:10.37,2013-03-02 12:46:00,
2013-03-02 07:51:00,28.6,21.0,30.03,NNW,338,1.2,2.3,73,0.00,CLR,SKC,0.00,WeatherDisplay:10.37,2013-03-02 12:51:00,
2013-03-02 07:56:00,28.6,21.0,30.03,WNW,292,1.4,3.5,73,0.00,CLR,SKC,0.00,WeatherDisplay:10.37,2013-03-02 12:56:00,
2013-03-02 08:01:00,28.8,21.2,30.03,NW,315,0.3,2.3,73,0.00,CLR,SKC,0.00,WeatherDisplay:10.37,2013-03-02 13:01:00,
2013-03-02 08:06:00,28.8,21.2,30.03,NW,315,0.8,3.5,73,0.00,CLR,SKC,0.00,WeatherDisplay:10.37,2013-03-02 13:06:00,
2013-03-02 08:11:00,28.9,21.4,30.03,WNW,292,0.7,2.3,73,0.00,CLR,SKC,0.00,WeatherDisplay:10.37,2013-03-02 13:11:00,
2013-03-02 08:16:00,29.1,21.9,30.03,NW,315,0.7,3.8,74,0.00,CLR,SKC,0.00,WeatherDisplay:10.37,2013-03-02 13:16:00,
2013-03-02 08:21:00,29.1,21.9,30.03,WNW,292,1.5,4.6,74,0.00,CLR,SKC,0.00,WeatherDisplay:10.37,2013-03-02 13:21:00,
2013-03-02 08:26:00,29.1,21.9,30.03,NW,315,0.5,2.3,74,0.00,CLR,SKC,0.00,WeatherDisplay:10.37,2013-03-02 13:26:00,
2013-03-02 08:31:00,29.3,22.0,30.04,NNW,338,3.6,4.6,74,0.00,CLR,SKC,0.00,WeatherDisplay:10.37,2013-03-02 13:31:00,
2013-03-02 08:36:00,29.5,21.9,30.03,NNW,338,2.4,5.8,73,0.00,CLR,SKC,0.00,WeatherDisplay:10.37,2013-03-02 13:36:00,
2013-03-02 08:41:00,29.3,22.0,30.04,NNW,338,3.9,5.8,74,0.00,CLR,SKC,0.00,WeatherDisplay:10.37,2013-03-02 13:41:00,
2013-03-02 08:46:00,29.3,22.0,30.03,North,0,1.5,2.3,74,0.00,CLR,SKC,0.00,WeatherDisplay:10.37,2013-03-02 13:46:00,
2013-03-02 08:51:00,29.5,22.2,30.04,NNW,338,0.9,2.3,74,0.00,CLR,SKC,0.00,WeatherDisplay:10.37,2013-03-02 13:51:00,
2013-03-02 08:56:00,29.8,22.6,30.03,NW,315,2.4,3.5,74,0.00,CLR,SKC,0.00,WeatherDisplay:10.37,2013-03-02 13:56:00,
2013-03-02 09:01:00,29.8,22.6,30.04,NW,315,3.3,4.6,74,0.00,CLR,SKC,0.00,WeatherDisplay:10.37,2013-03-02 14:01:00,
2013-03-02 09:06:00,30.0,22.7,30.04,NNW,338,1.9,4.6,74,0.00,CLR,SKC,0.00,WeatherDisplay:10.37,2013-03-02 14:06:00,
2013-03-02 09:11:00,30.0,22.7,30.04,NNE,22,3.7,5.8,74,0.00,CLR,SKC,0.00,WeatherDisplay:10.37,2013-03-02 14:11:00,
2013-03-02 09:16:00,30.2,22.6,30.04,NNW,338,0.6,2.3,73,0.00,CLR,SKC,0.00,WeatherDisplay:10.37,2013-03-02 14:16:00,
2013-03-02 09:21:00,30.2,22.9,30.04,North,0,1.4,2.3,74,0.00,CLR,SKC,0.00,WeatherDisplay:10.37,2013-03-02 14:21:00,
2013-03-02 09:26:00,30.4,22.8,30.04,NW,315,4.4,5.8,73,0.00,CLR,SKC,0.00,WeatherDisplay:10.37,2013-03-02 14:26:00,
2013-03-02 09:31:00,30.6,22.9,30.03,NNE,22,0.7,1.1,73,0.00,CLR,SKC,0.00,WeatherDisplay:10.37,2013-03-02 14:31:00,
2013-03-02 09:36:00,30.6,23.3,30.04,North,0,2.5,4.6,74,0.00,CLR,SKC,0.00,WeatherDisplay:10.37,2013-03-02 14:36:00,
2013-03-02 09:41:00,30.6,23.3,30.04,North,0,2.6,4.6,74,0.00,CLR,SKC,0.00,WeatherDisplay:10.37,2013-03-02 14:41:00,
2013-03-02 09:46:00,30.4,23.1,30.04,NNW,338,2.5,4.6,74,0.00,CLR,SKC,0.00,WeatherDisplay:10.37,2013-03-02 14:46:00,
2013-03-02 09:51:00,30.6,23.3,30.04,NNE,22,0.8,4.6,74,0.00,CLR,SKC,0.00,WeatherDisplay:10.37,2013-03-02 14:51:00,
2013-03-02 09:56:00,30.6,23.3,30.04,NNW,338,3.9,9.2,74,0.00,CLR,SKC,0.00,WeatherDisplay:10.37,2013-03-02 14:56:00,
2013-03-02 10:01:00,30.6,23.3,30.04,NNW,338,4.7,5.8,74,0.00,CLR,SKC,0.00,WeatherDisplay:10.37,2013-03-02 15:01:00,
2013-03-02 10:06:00,30.6,23.6,30.04,NNE,22,2.3,4.6,75,0.00,CLR,SKC,0.00,WeatherDisplay:10.37,2013-03-02 15:06:00,
2013-03-02 10:11:00,30.4,23.4,30.05,North,0,4.5,8.1,75,0.00,CLR,SKC,0.00,WeatherDisplay:10.37,2013-03-02 15:11:00,
2013-03-02 10:16:00,30.4,23.1,30.04,NE,45,3.1,3.5,74,0.00,CLR,SKC,0.00,WeatherDisplay:10.37,2013-03-02 15:16:00,
2013-03-02 10:21:00,30.4,23.1,30.05,NE,45,2.0,4.6,74,0.00,CLR,SKC,0.00,WeatherDisplay:10.37,2013-03-02 15:21:00,
2013-03-02 10:26:00,30.4,23.1,30.04,NNE,22,5.0,9.2,74,0.00,CLR,SKC,0.00,WeatherDisplay:10.37,2013-03-02 15:26:00,
2013-03-02 10:31:00,30.4,22.8,30.04,NNE,22,1.1,3.5,73,0.00,CLR,SKC,0.00,WeatherDisplay:10.37,2013-03-02 15:31:00,
2013-03-02 10:36:00,30.4,22.4,30.04,North,0,3.3,4.7,72,0.00,CLR,SKC,0.00,WeatherDisplay:10.37,2013-03-02 15:36:00,
2013-03-02 10:41:00,30.6,22.3,30.04,NNW,338,1.0,3.5,71,0.00,CLR,SKC,0.00,WeatherDisplay:10.37,2013-03-02 15:41:00,
2013-03-02 10:46:00,30.9,22.6,30.04,East,90,5.9,8.1,71,0.00,CLR,SKC,0.00,WeatherDisplay:10.37,2013-03-02 15:46:00,
2013-03-02 10:51:00,31.1,22.1,30.04,NE,45,5.4,8.1,69,0.00,CLR,SKC,0.00,WeatherDisplay:10.37,2013-03-02 15:51:00,
2013-03-02 10:56:00,31.6,22.6,30.04,NE,45,2.9,3.5,69,0.00,CLR,SKC,0.00,WeatherDisplay:10.37,2013-03-02 15:56:00,
2013-03-02 11:01:00,31.6,22.3,30.03,East,90,1.5,2.3,68,0.00,CLR,SKC,0.00,WeatherDisplay:10.37,2013-03-02 16:01:00,
2013-03-02 11:06:00,31.8,22.5,30.04,NNE,22,4.8,5.8,68,0.00,CLR,SKC,0.00,WeatherDisplay:10.37,2013-03-02 16:06:00,
2013-03-02 11:11:00,32.2,22.4,30.04,North,0,0.9,2.3,67,0.00,CLR,SKC,0.00,WeatherDisplay:10.37,2013-03-02 16:11:00,
2013-03-02 11:16:00,32.4,22.6,30.04,NE,45,1.9,3.5,67,0.00,CLR,SKC,0.00,WeatherDisplay:10.37,2013-03-02 16:16:00,
2013-03-02 11:21:00,32.5,22.8,30.04,NNE,22,3.8,7.4,67,0.00,CLR,SKC,0.00,WeatherDisplay:10.37,2013-03-02 16:21:00,
2013-03-02 11:26:00,32.5,22.4,30.03,North,0,1.3,3.5,66,0.00,CLR,SKC,0.00,WeatherDisplay:10.37,2013-03-02 16:26:00,
2013-03-02 11:31:00,32.5,22.4,30.04,NNW,338,7.0,10.4,66,0.00,CLR,SKC,0.00,WeatherDisplay:10.37,2013-03-02 16:31:00,
2013-03-02 11:36:00,32.5,22.1,30.04,NNW,338,3.7,5.8,65,0.00,CLR,SKC,0.00,WeatherDisplay:10.37,2013-03-02 16:36:00,
2013-03-02 11:41:00,32.5,22.1,30.04,NNW,338,1.9,3.5,65,0.00,CLR,SKC,0.00,WeatherDisplay:10.37,2013-03-02 16:41:00,
2013-03-02 11:46:00,32.7,22.2,30.04,NNW,338,5.3,9.2,65,0.00,CLR,SKC,0.00,WeatherDisplay:10.37,2013-03-02 16:46:00,
2013-03-02 11:51:00,32.9,22.4,30.04,NNE,22,3.3,5.8,65,0.00,CLR,SKC,0.00,WeatherDisplay:10.37,2013-03-02 16:51:00,
2013-03-02 11:56:00,33.1,22.6,30.04,NNW,338,8.2,11.5,65,0.00,CLR,SKC,0.00,WeatherDisplay:10.37,2013-03-02 16:56:00,
2013-03-02 12:01:00,32.9,22.0,30.04,North,0,7.0,10.4,64,0.00,CLR,SKC,0.00,WeatherDisplay:10.37,2013-03-02 17:01:00,
2013-03-02 12:06:00,33.1,22.2,30.04,NNW,338,7.4,10.4,64,0.00,CLR,SKC,0.00,WeatherDisplay:10.37,2013-03-02 17:06:00,
2013-03-02 12:11:00,33.1,22.2,30.04,NE,45,2.1,4.6,64,0.00,CLR,SKC,0.00,WeatherDisplay:10.37,2013-03-02 17:11:00,
2013-03-02 12:16:00,33.1,22.2,30.04,North,0,2.2,5.8,64,0.00,CLR,SKC,0.00,WeatherDisplay:10.37,2013-03-02 17:16:00,
2013-03-02 12:21:00,33.3,22.4,30.04,NNE,22,4.6,9.2,64,0.00,CLR,SKC,0.00,WeatherDisplay:10.37,2013-03-02 17:21:00,
2013-03-02 12:26:00,33.6,22.4,30.03,NNW,338,5.5,9.2,63,0.00,CLR,SKC,0.00,WeatherDisplay:10.37,2013-03-02 17:26:00,
2013-03-02 12:31:00,34.2,22.9,30.03,North,0,6.0,8.1,63,0.00,CLR,SKC,0.00,WeatherDisplay:10.37,2013-03-02 17:31:00,
2013-03-02 12:36:00,34.3,23.0,30.03,ENE,68,4.1,9.2,63,0.00,CLR,SKC,0.00,WeatherDisplay:10.37,2013-03-02 17:36:00,
2013-03-02 12:41:00,34.2,22.5,30.03,NNE,22,1.9,4.6,62,0.00,CLR,SKC,0.00,WeatherDisplay:10.37,2013-03-02 17:41:00,
2013-03-02 12:46:00,34.3,22.7,30.03,NW,315,5.0,9.2,62,0.00,CLR,SKC,0.00,WeatherDisplay:10.37,2013-03-02 17:46:00,
2013-03-02 12:51:00,34.3,22.7,30.02,NNE,22,5.6,10.4,62,0.00,CLR,SKC,0.00,WeatherDisplay:10.37,2013-03-02 17:51:00,
2013-03-02 12:56:00,34.3,22.7,30.02,NNE,22,5.7,9.2,62,0.00,CLR,SKC,0.00,WeatherDisplay:10.37,2013-03-02 17:56:00,
2013-03-02 13:01:00,34.5,22.8,30.02,North,0,1.6,4.0,62,0.00,CLR,SKC,0.00,WeatherDisplay:10.37,2013-03-02 18:01:00,
2013-03-02 13:06:00,34.5,22.8,30.02,North,0,3.7,6.9,62,0.00,CLR,SKC,0.00,WeatherDisplay:10.37,2013-03-02 18:06:00,
2013-03-02 13:11:00,34.7,22.6,30.01,NNW,338,4.0,8.1,61,0.00,CLR,SKC,0.00,WeatherDisplay:10.37,2013-03-02 18:11:00,
2013-03-02 13:16:00,34.7,22.6,30.01,NE,45,2.4,8.7,61,0.00,CLR,SKC,0.00,WeatherDisplay:10.37,2013-03-02 18:16:00,
2013-03-02 13:21:00,34.3,22.3,30.01,NNE,22,2.9,8.1,61,0.00,CLR,SKC,0.00,WeatherDisplay:10.37,2013-03-02 18:21:00,
2013-03-02 13:26:00,34.5,22.8,30.00,NNE,22,1.4,4.6,62,0.00,CLR,SKC,0.00,WeatherDisplay:10.37,2013-03-02 18:26:00,
2013-03-02 13:31:00,35.2,23.5,30.00,NE,45,0.9,1.1,62,0.00,CLR,SKC,0.00,WeatherDisplay:10.37,2013-03-02 18:31:00,
2013-03-02 13:36:00,35.8,23.6,30.00,NNE,22,3.1,6.9,61,0.00,CLR,SKC,0.00,WeatherDisplay:10.37,2013-03-02 18:36:00,
2013-03-02 13:41:00,36.0,23.8,30.00,North,0,1.3,3.5,61,0.00,CLR,SKC,0.00,WeatherDisplay:10.37,2013-03-02 18:41:00,
2013-03-02 13:46:00,36.0,23.4,30.00,NNW,338,0.9,2.3,60,0.00,CLR,SKC,0.00,WeatherDisplay:10.37,2013-03-02 18:46:00,
2013-03-02 13:51:00,36.1,23.6,30.00,North,0,4.3,5.8,60,0.00,CLR,SKC,0.00,WeatherDisplay:10.37,2013-03-02 18:51:00,
2013-03-02 13:56:00,36.3,23.3,30.00,NE,45,2.2,3.5,59,0.00,CLR,SKC,0.00,WeatherDisplay:10.37,2013-03-02 18:56:00,
2013-03-02 14:01:00,35.8,23.2,30.00,NNE,22,3.3,6.9,60,0.00,CLR,SKC,0.00,WeatherDisplay:10.37,2013-03-02 19:01:00,
2013-03-02 14:06:00,35.8,23.2,30.00,NW,315,3.1,9.2,60,0.00,CLR,SKC,0.00,WeatherDisplay:10.37,2013-03-02 19:06:00,
2013-03-02 14:11:00,35.4,22.9,30.00,NW,315,4.3,5.8,60,0.00,CLR,SKC,0.00,WeatherDisplay:10.37,2013-03-02 19:11:00,
2013-03-02 14:16:00,34.9,22.4,30.00,NW,315,3.5,4.6,60,0.00,CLR,SKC,0.00,WeatherDisplay:10.37,2013-03-02 19:16:00,
2013-03-02 14:21:00,34.7,23.0,30.00,NNW,338,4.7,8.1,62,0.00,CLR,SKC,0.00,WeatherDisplay:10.37,2013-03-02 19:21:00,
2013-03-02 14:26:00,34.5,23.2,30.00,West,270,4.7,5.8,63,0.00,CLR,SKC,0.00,WeatherDisplay:10.37,2013-03-02 19:26:00,
2013-03-02 14:31:00,34.3,23.8,30.00,WNW,292,5.0,8.1,65,0.00,CLR,SKC,0.00,WeatherDisplay:10.37,2013-03-02 19:31:00,
2013-03-02 14:36:00,34.0,23.8,30.00,WNW,292,3.9,6.9,66,0.00,CLR,SKC,0.00,WeatherDisplay:10.37,2013-03-02 19:36:00,
2013-03-02 14:41:00,33.8,24.4,30.00,NW,315,4.1,8.1,68,0.00,CLR,SKC,0.00,WeatherDisplay:10.37,2013-03-02 19:41:00,
2013-03-02 14:46:00,33.6,24.5,29.99,NNW,338,2.3,6.9,69,0.00,CLR,SKC,0.00,WeatherDisplay:10.37,2013-03-02 19:46:00,
2013-03-02 14:51:00,33.6,24.9,29.99,NNW,338,5.0,11.5,70,0.00,CLR,SKC,0.00,WeatherDisplay:10.37,2013-03-02 19:51:00,
2013-03-02 14:56:00,33.4,25.0,30.00,WNW,292,5.0,6.9,71,0.00,CLR,SKC,0.00,WeatherDisplay:10.37,2013-03-02 19:56:00,
2013-03-02 15:01:00,33.4,25.4,29.99,WNW,292,4.8,8.1,72,0.00,CLR,SKC,0.00,WeatherDisplay:10.37,2013-03-02 20:01:00,
2013-03-02 15:06:00,33.6,25.6,29.99,WNW,292,3.5,6.9,72,0.00,CLR,SKC,0.00,WeatherDisplay:10.37,2013-03-02 20:06:00,
2013-03-02 15:11:00,33.6,25.6,29.99,NNW,338,6.4,8.1,72,0.00,CLR,SKC,0.00,WeatherDisplay:10.37,2013-03-02 20:11:00,
2013-03-02 15:16:00,33.6,25.9,30.00,WNW,292,5.8,9.2,73,0.00,CLR,SKC,0.00,WeatherDisplay:10.37,2013-03-02 20:16:00,
2013-03-02 15:21:00,33.4,25.7,29.99,WNW,292,4.4,9.6,73,0.00,CLR,SKC,0.00,WeatherDisplay:10.37,2013-03-02 20:21:00,
2013-03-02 15:26:00,33.3,25.5,30.00,West,270,5.1,9.4,73,0.00,CLR,SKC,0.00,WeatherDisplay:10.37,2013-03-02 20:26:00,
2013-03-02 15:31:00,33.1,25.7,30.00,NNW,338,6.6,8.1,74,0.00,CLR,SKC,0.00,WeatherDisplay:10.37,2013-03-02 20:31:00,
2013-03-02 15:36:00,33.1,25.7,29.99,West,270,3.4,6.3,74,0.00,CLR,SKC,0.00,WeatherDisplay:10.37,2013-03-02 20:36:00,
2013-03-02 15:41:00,33.1,25.7,30.00,NW,315,6.0,8.1,74,0.00,CLR,SKC,0.00,WeatherDisplay:10.37,2013-03-02 20:41:00,
2013-03-02 15:46:00,33.3,25.9,30.00,WNW,292,5.1,8.1,74,0.00,CLR,SKC,0.00,WeatherDisplay:10.37,2013-03-02 20:46:00,
2013-03-02 15:51:00,33.6,26.2,30.00,WNW,292,2.9,3.5,74,0.00,CLR,SKC,0.00,WeatherDisplay:10.37,2013-03-02 20:51:00,
2013-03-02 15:56:00,33.6,26.2,30.00,WNW,292,3.6,5.8,74,0.00,CLR,SKC,0.00,WeatherDisplay:10.37,2013-03-02 20:56:00,
2013-03-02 16:01:00,34.2,26.4,30.00,NW,315,3.1,4.6,73,0.00,CLR,SKC,0.00,WeatherDisplay:10.37,2013-03-02 21:01:00,
2013-03-02 16:06:00,34.0,26.2,30.00,NW,315,3.1,6.9,73,0.00,CLR,SKC,0.00,WeatherDisplay:10.37,2013-03-02 21:06:00,
2013-03-02 16:11:00,34.0,26.2,30.00,NW,315,5.1,10.4,73,0.00,CLR,SKC,0.00,WeatherDisplay:10.37,2013-03-02 21:11:00,
2013-03-02 16:16:00,34.0,25.9,30.00,North,0,3.3,7.4,72,0.00,CLR,SKC,0.00,WeatherDisplay:10.37,2013-03-02 21:16:00,
2013-03-02 16:21:00,34.2,26.1,30.00,WNW,292,5.2,5.2,72,0.00,CLR,SKC,0.00,WeatherDisplay:10.37,2013-03-02 21:21:00,
2013-03-02 16:26:00,34.2,26.1,30.00,WSW,248,4.3,5.8,72,0.00,CLR,SKC,0.00,WeatherDisplay:10.37,2013-03-02 21:26:00,
2013-03-02 16:31:00,34.0,26.2,30.00,NW,315,3.1,4.7,73,0.00,CLR,SKC,0.00,WeatherDisplay:10.37,2013-03-02 21:31:00,
2013-03-02 16:36:00,33.6,25.9,30.00,West,270,8.1,10.4,73,0.00,CLR,SKC,0.00,WeatherDisplay:10.37,2013-03-02 21:36:00,
2013-03-02 16:41:00,33.6,25.9,30.00,NW,315,1.8,5.8,73,0.00,CLR,SKC,0.00,WeatherDisplay:10.37,2013-03-02 21:41:00,
2013-03-02 16:46:00,33.6,25.9,30.00,NNW,338,4.6,8.0,73,0.00,CLR,SKC,0.00,WeatherDisplay:10.37,2013-03-02 21:46:00,
2013-03-02 16:51:00,33.6,25.9,30.00,NW,315,7.7,10.4,73,0.00,CLR,SKC,0.00,WeatherDisplay:10.37,2013-03-02 21:51:00,
2013-03-02 16:56:00,33.6,25.9,30.00,WNW,292,1.4,2.7,73,0.00,CLR,SKC,0.00,WeatherDisplay:10.37,2013-03-02 21:56:00,
2013-03-02 17:01:00,33.6,25.9,30.00,WNW,292,8.1,9.2,73,0.00,CLR,SKC,0.00,WeatherDisplay:10.37,2013-03-02 22:01:00,
2013-03-02 17:06:00,33.4,25.7,30.00,West,270,6.4,9.2,73,0.00,CLR,SKC,0.00,WeatherDisplay:10.37,2013-03-02 22:06:00,
2013-03-02 17:11:00,33.4,25.7,30.00,NNW,338,3.4,5.8,73,0.00,CLR,SKC,0.00,WeatherDisplay:10.37,2013-03-02 22:11:00,
2013-03-02 17:16:00,33.1,25.4,30.01,WNW,292,4.5,6.9,73,0.00,CLR,SKC,0.00,WeatherDisplay:10.37,2013-03-02 22:16:00,
2013-03-02 17:21:00,33.1,25.4,30.00,WNW,292,4.2,6.9,73,0.00,CLR,SKC,0.00,WeatherDisplay:10.37,2013-03-02 22:21:00,
2013-03-02 17:26:00,32.9,25.2,30.01,WNW,292,5.9,9.2,73,0.00,CLR,SKC,0.00,WeatherDisplay:10.37,2013-03-02 22:26:00,
2013-03-02 17:31:00,32.7,25.3,30.00,WNW,292,4.3,4.6,74,0.00,CLR,SKC,0.00,WeatherDisplay:10.37,2013-03-02 22:31:00,
2013-03-02 17:36:00,32.7,25.3,30.00,NNW,338,3.1,7.6,74,0.00,CLR,SKC,0.00,WeatherDisplay:10.37,2013-03-02 22:36:00,
2013-03-02 17:41:00,32.7,25.3,30.00,NNW,338,5.2,9.6,74,0.00,CLR,SKC,0.00,WeatherDisplay:10.37,2013-03-02 22:41:00,
2013-03-02 17:46:00,32.5,25.2,30.01,NNW,338,7.0,9.2,74,0.00,CLR,SKC,0.00,WeatherDisplay:10.37,2013-03-02 22:46:00,
2013-03-02 17:51:00,32.2,24.8,30.01,West,270,6.0,9.2,74,0.00,CLR,SKC,0.00,WeatherDisplay:10.37,2013-03-02 22:51:00,
2013-03-02 17:56:00,32.2,24.8,30.01,NW,315,6.3,8.1,74,0.00,CLR,SKC,0.00,WeatherDisplay:10.37,2013-03-02 22:56:00,
2013-03-02 18:01:00,31.8,24.8,30.01,West,270,7.2,13.8,75,0.00,CLR,SKC,0.00,WeatherDisplay:10.37,2013-03-02 23:01:00,
2013-03-02 18:06:00,31.6,24.6,30.02,NW,315,3.9,4.6,75,0.00,CLR,SKC,0.00,WeatherDisplay:10.37,2013-03-02 23:06:00,
2013-03-02 18:11:00,31.3,24.3,30.01,West,270,4.1,11.5,75,0.00,CLR,SKC,0.00,WeatherDisplay:10.37,2013-03-02 23:11:00,
2013-03-02 18:16:00,31.3,24.6,30.01,NNW,338,6.7,10.5,76,0.00,CLR,SKC,0.00,WeatherDisplay:10.37,2013-03-02 23:16:00,
2013-03-02 18:21:00,31.1,24.4,30.02,WNW,292,4.4,10.7,76,0.00,CLR,SKC,0.00,WeatherDisplay:10.37,2013-03-02 23:21:00,
2013-03-02 18:26:00,30.9,24.6,30.01,NNW,338,5.1,10.4,77,0.00,CLR,SKC,0.00,WeatherDisplay:10.37,2013-03-02 23:26:00,
2013-03-02 18:31:00,30.7,24.4,30.01,North,0,5.1,6.9,77,0.00,CLR,SKC,0.00,WeatherDisplay:10.37,2013-03-02 23:31:00,
2013-03-02 18:36:00,30.6,24.5,30.02,NW,315,4.6,5.8,78,0.00,CLR,SKC,0.00,WeatherDisplay:10.37,2013-03-02 23:36:00,
2013-03-02 18:41:00,30.6,24.5,30.02,North,0,4.9,6.9,78,0.00,CLR,SKC,0.00,WeatherDisplay:10.37,2013-03-02 23:41:00,
2013-03-02 18:46:00,30.4,24.3,30.02,NNW,338,4.6,10.4,78,0.00,CLR,SKC,0.00,WeatherDisplay:10.37,2013-03-02 23:46:00,
2013-03-02 18:51:00,30.4,24.3,30.02,NNW,338,6.2,11.5,78,0.00,CLR,SKC,0.00,WeatherDisplay:10.37,2013-03-02 23:51:00,
2013-03-02 18:56:00,30.2,24.5,30.02,NW,315,2.9,5.8,79,0.00,CLR,SKC,0.00,WeatherDisplay:10.37,2013-03-02 23:56:00,
2013-03-02 19:01:00,30.2,24.5,30.02,NW,315,5.1,10.4,79,0.00,CLR,SKC,0.00,WeatherDisplay:10.37,2013-03-03 00:01:00,
2013-03-02 19:06:00,30.2,24.5,30.03,NW,315,5.3,9.2,79,0.00,CLR,SKC,0.00,WeatherDisplay:10.37,2013-03-03 00:06:00,
2013-03-02 19:11:00,30.2,24.8,30.03,WNW,292,4.8,6.9,80,0.00,CLR,SKC,0.00,WeatherDisplay:10.37,2013-03-03 00:11:00,
2013-03-02 19:16:00,30.2,24.8,30.02,NNW,338,1.8,3.5,80,0.00,CLR,SKC,0.00,WeatherDisplay:10.37,2013-03-03 00:16:00,
2013-03-02 19:21:00,30.2,24.8,30.02,NNW,338,5.0,8.1,80,0.00,CLR,SKC,0.00,WeatherDisplay:10.37,2013-03-03 00:21:00,
2013-03-02 19:26:00,30.2,24.8,30.02,NW,315,2.1,5.8,80,0.00,CLR,SKC,0.00,WeatherDisplay:10.37,2013-03-03 00:26:00,
2013-03-02 19:31:00,30.0,24.6,30.03,WNW,292,3.6,5.8,80,0.00,CLR,SKC,0.00,WeatherDisplay:10.37,2013-03-03 00:31:00,
2013-03-02 19:36:00,30.0,24.6,30.03,NNW,338,2.6,4.6,80,0.00,CLR,SKC,0.00,WeatherDisplay:10.37,2013-03-03 00:36:00,
2013-03-02 19:41:00,30.0,24.6,30.03,West,270,0.8,5.8,80,0.00,CLR,SKC,0.00,WeatherDisplay:10.37,2013-03-03 00:41:00,
2013-03-02 19:46:00,30.0,24.6,30.03,NNW,338,4.7,5.8,80,0.00,CLR,SKC,0.00,WeatherDisplay:10.37,2013-03-03 00:46:00,
2013-03-02 19:51:00,30.0,24.6,30.03,NNE,22,4.1,9.2,80,0.00,CLR,SKC,0.00,WeatherDisplay:10.37,2013-03-03 00:51:00,
2013-03-02 19:56:00,30.0,24.6,30.03,NNW,338,3.0,4.6,80,0.00,CLR,SKC,0.00,WeatherDisplay:10.37,2013-03-03 00:56:00,
2013-03-02 20:01:00,29.8,24.4,30.03,WNW,292,2.3,4.6,80,0.00,CLR,SKC,0.00,WeatherDisplay:10.37,2013-03-03 01:01:00,
2013-03-02 20:06:00,29.8,24.4,30.03,NW,315,2.2,3.5,80,0.00,CLR,SKC,0.00,WeatherDisplay:10.37,2013-03-03 01:06:00,
2013-03-02 20:11:00,29.8,24.4,30.03,North,0,3.4,6.9,80,0.00,CLR,SKC,0.00,WeatherDisplay:10.37,2013-03-03 01:11:00,
2013-03-02 20:16:00,29.8,24.4,30.03,WNW,292,3.7,8.1,80,0.00,CLR,SKC,0.00,WeatherDisplay:10.37,2013-03-03 01:16:00,
2013-03-02 20:21:00,29.8,24.1,30.03,NNW,338,2.6,5.8,79,0.00,CLR,SKC,0.00,WeatherDisplay:10.37,2013-03-03 01:21:00,
2013-03-02 20:26:00,29.8,24.1,30.02,West,270,3.1,4.6,79,0.00,CLR,SKC,0.00,WeatherDisplay:10.37,2013-03-03 01:26:00,
2013-03-02 20:31:00,29.8,24.1,30.02,NW,315,3.4,3.5,79,0.00,CLR,SKC,0.00,WeatherDisplay:10.37,2013-03-03 01:31:00,
2013-03-02 20:36:00,29.8,24.1,30.03,NW,315,4.7,8.1,79,0.00,CLR,SKC,0.00,WeatherDisplay:10.37,2013-03-03 01:36:00,
2013-03-02 20:41:00,29.7,23.9,30.03,NNW,338,6.2,10.4,79,0.00,CLR,SKC,0.00,WeatherDisplay:10.37,2013-03-03 01:41:00,
2013-03-02 20:46:00,29.7,23.6,30.02,NNW,338,0.6,4.6,78,0.00,CLR,SKC,0.00,WeatherDisplay:10.37,2013-03-03 01:46:00,
2013-03-02 20:51:00,29.5,23.5,30.03,NW,315,6.3,9.2,78,0.00,CLR,SKC,0.00,WeatherDisplay:10.37,2013-03-03 01:51:00,
2013-03-02 20:56:00,29.5,23.5,30.02,North,0,4.0,5.8,78,0.00,CLR,SKC,0.00,WeatherDisplay:10.37,2013-03-03 01:56:00,
2013-03-02 21:01:00,29.5,23.5,30.03,NNW,338,2.6,12.1,78,0.00,CLR,SKC,0.00,WeatherDisplay:10.37,2013-03-03 02:01:00,
2013-03-02 21:06:00,29.5,23.5,30.03,NNW,338,2.0,4.6,78,0.00,CLR,SKC,0.00,WeatherDisplay:10.37,2013-03-03 02:06:00,
2013-03-02 21:11:00,29.3,23.3,30.03,North,0,4.0,7.8,78,0.00,CLR,SKC,0.00,WeatherDisplay:10.37,2013-03-03 02:11:00,
2013-03-02 21:16:00,29.3,23.3,30.03,NNW,338,4.1,4.6,78,0.00,CLR,SKC,0.00,WeatherDisplay:10.37,2013-03-03 02:16:00,
2013-03-02 21:21:00,29.3,23.3,30.03,NNW,338,6.2,9.2,78,0.00,CLR,SKC,0.00,WeatherDisplay:10.37,2013-03-03 02:21:00,
2013-03-02 21:26:00,29.3,23.3,30.03,North,0,4.8,8.1,78,0.00,CLR,SKC,0.00,WeatherDisplay:10.37,2013-03-03 02:26:00,
2013-03-02 21:31:00,29.3,23.3,30.03,NNW,338,4.9,6.9,78,0.00,CLR,SKC,0.00,WeatherDisplay:10.37,2013-03-03 02:31:00,
2013-03-02 21:36:00,29.1,23.1,30.03,NNW,338,2.8,5.8,78,0.00,CLR,SKC,0.00,WeatherDisplay:10.37,2013-03-03 02:36:00,
2013-03-02 21:41:00,29.1,23.1,30.03,NNW,338,4.7,9.2,78,0.00,CLR,SKC,0.00,WeatherDisplay:10.37,2013-03-03 02:41:00,
2013-03-02 21:46:00,29.1,23.1,30.03,NW,315,3.9,11.5,78,0.00,CLR,SKC,0.00,WeatherDisplay:10.37,2013-03-03 02:46:00,
2013-03-02 21:51:00,29.1,22.8,30.03,NNW,338,4.8,6.9,77,0.00,CLR,SKC,0.00,WeatherDisplay:10.37,2013-03-03 02:51:00,
2013-03-02 21:56:00,29.1,22.8,30.03,NNW,338,2.8,3.5,77,0.00,CLR,SKC,0.00,WeatherDisplay:10.37,2013-03-03 02:56:00,
2013-03-02 22:01:00,29.1,22.8,30.03,North,0,4.6,5.8,77,0.00,CLR,SKC,0.00,WeatherDisplay:10.37,2013-03-03 03:01:00,
2013-03-02 22:06:00,29.1,22.8,30.03,WNW,292,6.7,12.7,77,0.00,CLR,SKC,0.00,WeatherDisplay:10.37,2013-03-03 03:06:00,
2013-03-02 22:11:00,29.1,22.5,30.04,NW,315,4.8,6.9,76,0.00,CLR,SKC,0.00,WeatherDisplay:10.37,2013-03-03 03:11:00,
2013-03-02 22:16:00,29.1,22.2,30.03,NNW,338,4.3,8.1,75,0.00,CLR,SKC,0.00,WeatherDisplay:10.37,2013-03-03 03:16:00,
2013-03-02 22:21:00,29.1,22.2,30.04,NW,315,3.9,8.1,75,0.00,CLR,SKC,0.00,WeatherDisplay:10.37,2013-03-03 03:21:00,
2013-03-02 22:26:00,29.1,21.9,30.03,NW,315,5.2,8.1,74,0.00,CLR,SKC,0.00,WeatherDisplay:10.37,2013-03-03 03:26:00,
2013-03-02 22:31:00,29.1,21.9,30.03,NNW,338,2.4,5.8,74,0.00,CLR,SKC,0.00,WeatherDisplay:10.37,2013-03-03 03:31:00,
2013-03-02 22:36:00,29.1,21.9,30.03,NNW,338,2.9,6.9,74,0.00,CLR,SKC,0.00,WeatherDisplay:10.37,2013-03-03 03:36:00,
2013-03-02 22:41:00,29.1,21.9,30.03,NW,315,5.0,5.8,74,0.00,CLR,SKC,0.00,WeatherDisplay:10.37,2013-03-03 03:41:00,
2013-03-02 22:46:00,28.9,21.7,30.04,NNW,338,4.6,10.3,74,0.00,CLR,SKC,0.00,WeatherDisplay:10.37,2013-03-03 03:46:00,
2013-03-02 22:51:00,28.9,21.7,30.04,NW,315,2.9,6.9,74,0.00,CLR,SKC,0.00,WeatherDisplay:10.37,2013-03-03 03:51:00,
2013-03-02 22:56:00,28.9,21.4,30.04,NW,315,6.9,12.1,73,0.00,CLR,SKC,0.00,WeatherDisplay:10.37,2013-03-03 03:56:00,
2013-03-02 23:01:00,28.8,21.2,30.03,NNW,338,3.7,5.8,73,0.00,CLR,SKC,0.00,WeatherDisplay:10.37,2013-03-03 04:01:00,
2013-03-02 23:06:00,28.8,21.2,30.04,NNW,338,3.1,5.4,73,0.00,CLR,SKC,0.00,WeatherDisplay:10.37,2013-03-03 04:06:00,
2013-03-02 23:11:00,28.8,20.9,30.04,NNW,338,5.7,9.6,72,0.00,CLR,SKC,0.00,WeatherDisplay:10.37,2013-03-03 04:11:00,
2013-03-02 23:16:00,28.6,20.7,30.03,North,0,6.8,11.5,72,0.00,CLR,SKC,0.00,WeatherDisplay:10.37,2013-03-03 04:16:00,
2013-03-02 23:21:00,28.6,20.7,30.03,North,0,6.0,9.2,72,0.00,CLR,SKC,0.00,WeatherDisplay:10.37,2013-03-03 04:21:00,
2013-03-02 23:26:00,28.6,20.7,30.03,WNW,292,5.5,6.9,72,0.00,CLR,SKC,0.00,WeatherDisplay:10.37,2013-03-03 04:26:00,
2013-03-02 23:31:00,28.6,20.7,30.03,NW,315,3.5,6.9,72,0.00,CLR,SKC,0.00,WeatherDisplay:10.37,2013-03-03 04:31:00,
2013-03-02 23:36:00,28.2,20.3,30.03,WNW,292,5.6,8.1,72,0.00,CLR,SKC,0.00,WeatherDisplay:10.37,2013-03-03 04:36:00,
2013-03-02 23:41:00,28.2,20.3,30.03,West,270,5.4,6.9,72,0.00,CLR,SKC,0.00,WeatherDisplay:10.37,2013-03-03 04:41:00,
2013-03-02 23:46:00,28.2,20.3,30.03,WNW,292,5.5,10.4,72,0.00,CLR,SKC,0.00,WeatherDisplay:10.37,2013-03-03 04:46:00,
2013-03-02 23:51:00,28.2,20.3,30.03,WNW,292,2.5,4.6,72,0.00,CLR,SKC,0.00,WeatherDisplay:10.37,2013-03-03 04:51:00,
2013-03-02 23:56:00,28.2,20.3,30.03,West,270,2.5,4.6,72,0.00,CLR,SKC,0.00,WeatherDisplay:10.37,2013-03-03 04:56:00,